Barrow, AK

6:32 PM AKDT on August 30, 2015 (GMT -0800)
Nuiqsut | | Change Station
CLOSE
Current Station
Airport
Location: Nuiqsut,
Elevation: 39 ft
Nearby Weather Stations

Elev 39 ft 70.21 °N, 150.99 °W | Updated 39 minutes ago

Overcast
Overcast
36 °F
Feels Like 28 °F
N
10
Wind Variable Wind from NNE

Today
High -- | Low -- °F
--% Chance of Precip.
Yesterday
High -- | Low -- °F
Precip. -- in
6:09 AM 9:56 PM
Full, 97% visible
Pressure 29.64 in
Visibility 10.0 miles
Clouds Overcast 1100 ft
Windchill 28 °F
Dew Point 32 °F
Humidity 86%
Rainfall 0.00 in
Snow Depth Not available.
UV 0 out of 12
Pollen Not available.
Air Quality Not available.
Flu Activity Not available.
METAR PAQT 310153Z AUTO 02009KT 10SM OVC011 02/00 A2964 RMK AO2 SLP036 T00220000 TSNO
Pressure 29.64 in
Visibility 10.0 miles
Clouds Overcast 1100 ft
Windchill 28 °F
Dew Point 32 °F
Humidity 86%
Rainfall 0.00 in
Snow Depth Not available.
UV 0 out of 12
Pollen Not available.
Air Quality Not available.
Flu Activity Not available.
METAR PAQT 310153Z AUTO 02009KT 10SM OVC011 02/00 A2964 RMK AO2 SLP036 T00220000 TSNO

10-Day Weather Forecast

×

Almanac

Astronomy

Aug. 30, 2015 Rise Set
Actual Time
Civil Twilight
Nautical Twilight
Astronomical Twilight
Moon
Length of Visible Light
Length of Day
Tomorrow will be .
, % of the Moon is Illuminated

Today's Extremes

State Highs State Lows

Community

WunderPhotos

Upload Photos

1,851,164 photos uploaded!

WunderBlogs® & News

Nearby

Air Quality

  Air Quality AQ Index Pollutant
Not available.

Snow Depth

Station Depth Elevation

Earthquake Activity

City Distance Mag. Time & Date
Minimum magnitude displayed is 2.5.

Coastal Water Temperatures

Place Temperature

Stations

Nearby Weather Stations

Station Location Temp. Windchill Dew Point Humidity Wind Precip. Elev Updated Type